URMN

Details ICAO URMN (NAL)
Name NALCHIK
Region Russia
Timezone Europe/Moscow (UTC+3.0)
Plans Departing 40
Arriving 35
Stats Elevation 1,462 ft / 446 m (AMSL)
Location 43.512854° 43.636583°
Runways 1
Magnetic Variation 7.221° E
Sunrise 2018-05-23 01:35:00 UTC / 2018-05-23 04:35:00 Local
Sunset 2018-05-23 16:32:15 UTC / 2018-05-23 19:32:15 Local
Advertisement - Login to hide

Runways

ID Width Length Bearing (true) Bearing (mag) Surface Threshold Offset Overrun Length
06 138 ft / 42 m 7,256 ft / 2,212 m 62.40° 55.18° Asphalt 0 ft / 0 m 145 ft / 44 m
24 138 ft / 42 m 7,256 ft / 2,212 m 242.42° 235.20° Asphalt 0 ft / 0 m 160 ft / 49 m

Approach Navaids

Runway Type Ident Frequency Range Bearing (true) Bearing (mag) Slope Elevation
24 Localiser INL 110.50 MHz 18 nm / 33 km 241.33° 234.11° - 1,462 ft / 446 m (AMSL)
24 Glidescope INL 110.50 MHz 10 nm / 19 km 242.41° 235.19° 2.70° 1,462 ft / 446 m (AMSL)

Map

Weather


0- 5 10 15 20 25 30 35+ Temperature / ° C

Clouds and Precipitation
Forecast for 2018-05-23 06:00 UTC. Updated 2 hours ago

Ground ~20,000 ft ~40,000 ft Winds

METAR

URMN 230730Z 05001MPS 9999 SCT/// 25/15 Q1018 R24/010070 NOSIG RMK QFE726

TAF

Not found

Frequencies

Tower 118.30 MHz TWR
Approach 126.90 MHz APP
Warning: Do not use this data for real-world aviation or navigation. No guarantee of current accuracy is given.